Login to view Products
 
Saturday, May 28, 2022 (11:20 UTC) 11
Fujairah International Airport
ICAO: OMFJ
IATA: FJR
  • METAR OMFJ 281100Z 09007KT 6000 NSC 35/20 Q1001 A2957=
  • TAF OMFJ 281100Z 2812/2918 07006KT 7000 NSC BECMG 2814/2816 VRB03KT BECMG 2818/2820 29008KT BECMG 2905/2907 07008KT BECMG 2916/2918 29010KT=
D:\Input Parser\Destinations\Final\11\OMFJL12181100399883676.txt
2